Contact Us:
Email: info@sawbill.com
Phone: (218)663-7150
Fax: (218)663-7980
Mail: 4620 Sawbill Trail
Box 2129
Tofte, MN 55615


Powered by
Movable Type 3.15
 
Sawbill Weather History Archives: March 2006
Current Sawbill Weather History | « February 2006 | April 2006 »


Date

High
Temperature

Low
Temperature

Barometric
Pressure

Relative
Humidity 7AM

9 AM
Temperature

Moisture

Snow

3/31/06 42 31 30.09 77% 24 .5" Trace
3/30/06 43 37 29.44 86% 42 .96"
3/29/06 54 32 29.88 83% 37 .48"
3/28/06 54 32 30.10 72% 36 0
3/27/06 49 22 30.13 74% 28 0
3/26/06 48 18 30.16 69% 20 0
3/25/06 48 21 30.24 73% 23 0
3/24/06 43 27 30.30 67% 33 0
3/23/06 40 25 30.22 72% 25 0
3/22/06 40 23 30.30 72% 25 .05" 1"
3/21/06 38 13 30.23 65% 23 0
3/20/06 38 12 30.36 62% 13 0
3/19/06 41 13 30.39 37% 12 0
3/18/06 37 9 30.39 45% 13 0
3/17/06 48 5 30.47 54% 7 0
3/16/06 39 4 30.46 51% 10 0
3/15/06 39 4 30.22 59% 4 0
3/14/06 34 15 30.15 69% 15 Trace Trace
3/13/06 25 16 29.83 65% 16 0
3/12/06 46 25 29.73 64% 25 0
3/11/06 44 27 29.90 72% 28 .2"
3/10/06 46 28 29.80 74% 29 0
3/9/06 42 31 29.55 76% 31 0
3/8/06 37 33 29.43 83% 34 0
3/7/06 38 28 29.57 81% 32 .03" 3"
3/6/06 50 25 30.14 78% 25 0
3/5/06 33 22 30.17 75% 25 .15" 2.5"
3/4/06 42 -4 30.23 73% 22 0
3/3/06 38 -6 30.43 55% -4 0
3/2/06 37 9 30.33 65% 10 0
3/1/06 40 7 29.95 59% 15 0
 


Home I Trip Planning I Rentals and Outfitting I Reservations I Campgrounds I Sawbill Store I Sawbill News I Contact

© 1997 - 2017, Sawbill Canoe Outfitters, Inc. I Privacy Policy